Olivebridge, NY

7:12 PM EST on January 26, 2015 (GMT -0500)
Orange County | Change Station
CLOSE
Current Station
Airport
Location: Montgomery,
Elevation: 364 ft
Nearby Weather Stations
Active Advisory: Winter Storm Warning

Elev 364 ft 41.51 °N, 74.26 °W | Updated 18 minutes ago

Overcast
Overcast
20 °F
Feels Like 4 °F
N
20
Wind Variable Wind from NNE

Today
High -- | Low -- °F
--% Chance of Precip.
Yesterday
High -- | Low -- °F
Precip. -- in
7:15 AM 5:04 PM
Waxing Crescent, 48% visible
Pressure 29.92 in
Visibility 8.0 miles
Clouds Mostly Cloudy 3600 ft
Overcast 6000 ft
Windchill 4 °F
Dew Point 15 °F
Humidity 81%
Rainfall 0.00 in
Snow Depth Not available.
UV 0 out of 12
Pollen .10 out of 12
Air Quality Not available.
Flu Activity Not available.
METAR KMGJ 262354Z AUTO 03017KT 8SM -SN BKN036 OVC060 M07/M09 A2990 RMK AO2 SNE21B51 SLP130 P0000 60000 T10671094 11067 21083 58000 TSNO

More Conditions Fewer Conditions

Pressure 29.92 in
Visibility 8.0 miles
Clouds Mostly Cloudy 3600 ft
Overcast 6000 ft
Windchill 4 °F
Dew Point 15 °F
Humidity 81%
Rainfall 0.00 in
Snow Depth Not available.
UV 0 out of 12
Pollen .10 out of 12
Air Quality Not available.
Flu Activity Not available.
METAR KMGJ 262354Z AUTO 03017KT 8SM -SN BKN036 OVC060 M07/M09 A2990 RMK AO2 SNE21B51 SLP130 P0000 60000 T10671094 11067 21083 58000 TSNO

More Conditions Fewer Conditions

10-Day Weather Forecast

Almanac

Astronomy

Jan. 26, 2015 Rise Set
Actual Time
Civil Twilight
Nautical Twilight
Astronomical Twilight
Moon
Length of Visible Light
Length of Day
Tomorrow will be .
, % of the Moon is Illuminated

Today's Extremes

State Highs State Lows

Community

WunderPhotos

Upload Photos

1,790,420 photos uploaded!

WunderBlogs® & News

Nearby

Air Quality

  Air Quality AQ Index Pollutant
Not available.

Snow Depth

Station Depth Elevation

Earthquake Activity

City Distance Mag. Time & Date
Minimum magnitude displayed is 2.5.

Coastal Water Temperatures

Place Temperature

Nearby Weather Stations